Time;durP1;ratioP1;P1;durP2;ratioP2;P2;SDS_P1;SDS_P2;PMS_P1;PMS_P2;Temp;Humidity;BMP_temperature;BMP_pressure;BME280_temperature;BME280_humidity;BME280_pressure;Samples;Min_cycle;Max_cycle;Signal;HPM_P1;HPM_P2
2022/12/24 00:02:54;;;;;;;11.43;2.35;;;13.50;99.90;;;;;;6228978;28;20097;-79
2022/12/24 00:05:57;;;;;;;7.95;2.28;;;13.50;99.90;;;;;;6229723;28;20056;-78
2022/12/24 00:08:58;;;;;;;6.60;1.92;;;13.50;99.90;;;;;;6227855;28;20046;-79
2022/12/24 00:12:00;;;;;;;13.68;3.92;;;13.50;99.90;;;;;;6229312;28;20052;-79
2022/12/24 00:15:02;;;;;;;9.52;2.08;;;13.50;99.90;;;;;;6228060;28;20519;-79
2022/12/24 00:18:03;;;;;;;3.85;2.10;;;13.50;99.90;;;;;;6228341;28;20078;-79
2022/12/24 00:21:06;;;;;;;6.40;2.35;;;13.50;99.90;;;;;;6228132;28;20050;-78
2022/12/24 00:24:08;;;;;;;9.63;3.63;;;13.50;99.90;;;;;;6227093;28;20050;-79
2022/12/24 00:27:10;;;;;;;19.92;2.88;;;13.40;99.90;;;;;;6227174;28;20068;-79
2022/12/24 00:30:12;;;;;;;5.28;1.77;;;13.30;99.90;;;;;;6227279;28;20061;-78
2022/12/24 00:33:14;;;;;;;7.78;2.03;;;12.60;99.90;;;;;;6226438;28;20408;-77
2022/12/24 00:36:18;;;;;;;9.75;3.42;;;12.20;99.90;;;;;;6226142;28;20054;-78
2022/12/24 00:39:20;;;;;;;9.48;2.08;;;12.00;99.90;;;;;;6249999;28;20530;-78
2022/12/24 00:42:22;;;;;;;17.15;3.03;;;11.70;99.90;;;;;;6250710;28;20041;-77
2022/12/24 00:45:25;;;;;;;14.68;2.85;;;11.50;99.90;;;;;;6251160;28;20605;-77
2022/12/24 00:48:27;;;;;;;17.60;5.00;;;11.40;99.90;;;;;;6251098;28;20057;-78
2022/12/24 00:51:30;;;;;;;18.23;3.65;;;11.40;99.90;;;;;;6250321;28;20053;-78
2022/12/24 00:54:32;;;;;;;9.50;2.97;;;11.40;99.90;;;;;;6250768;28;20049;-77
2022/12/24 00:57:34;;;;;;;17.67;3.67;;;11.40;99.90;;;;;;6251215;28;20054;-77
2022/12/24 01:00:35;;;;;;;13.93;3.70;;;11.40;99.90;;;;;;6250871;28;20053;-78
2022/12/24 01:03:37;;;;;;;18.20;3.65;;;11.40;99.90;;;;;;6250372;28;20057;-78
2022/12/24 01:06:39;;;;;;;16.17;4.60;;;11.40;99.90;;;;;;6251337;28;20052;-79
2022/12/24 01:09:41;;;;;;;15.27;3.10;;;11.30;99.90;;;;;;6251150;28;20053;-80
2022/12/24 01:12:43;;;;;;;9.85;2.30;;;11.30;99.90;;;;;;6254649;28;20048;-80
2022/12/24 01:15:45;;;;;;;8.93;2.88;;;11.30;99.90;;;;;;6252819;28;20572;-78
2022/12/24 01:18:47;;;;;;;15.20;3.35;;;11.20;99.90;;;;;;6249666;28;20052;-78
2022/12/24 01:21:51;;;;;;;20.05;3.13;;;11.20;99.90;;;;;;6249891;28;20510;-78
2022/12/24 01:24:53;;;;;;;12.18;3.15;;;11.20;99.90;;;;;;6249848;28;20046;-78
2022/12/24 01:27:55;;;;;;;15.32;2.35;;;11.20;99.90;;;;;;6249087;28;20049;-78
2022/12/24 01:30:56;;;;;;;5.68;2.00;;;11.20;99.90;;;;;;6250075;28;20053;-79
2022/12/24 01:33:58;;;;;;;12.77;3.10;;;11.20;99.90;;;;;;6251107;28;20045;-79
2022/12/24 01:37:01;;;;;;;15.75;2.63;;;11.20;99.90;;;;;;6249409;28;20045;-79
2022/12/24 01:43:26;;;;;;;15.07;4.18;;;11.30;99.90;;;;;;6233534;28;20042;-79
2022/12/24 01:46:31;;;;;;;11.10;3.20;;;11.20;99.90;;;;;;6224984;28;20123;-79
2022/12/24 01:49:34;;;;;;;9.93;3.17;;;11.20;99.90;;;;;;6225536;28;20046;-78
2022/12/24 01:52:37;;;;;;;14.65;3.58;;;11.30;99.90;;;;;;6224199;28;20423;-79
2022/12/24 01:55:40;;;;;;;11.30;2.45;;;11.20;99.90;;;;;;6223922;28;20054;-79
2022/12/24 01:58:46;;;;;;;9.98;3.33;;;11.20;99.90;;;;;;6224763;28;20057;-79
2022/12/24 02:01:49;;;;;;;14.20;2.40;;;11.20;99.90;;;;;;6223994;28;20057;-79
2022/12/24 02:04:56;;;;;;;13.77;3.15;;;11.10;99.90;;;;;;6223879;28;20042;-78
2022/12/24 02:08:01;;;;;;;12.20;4.70;;;11.10;99.90;;;;;;6223602;28;20050;-78
2022/12/24 02:11:03;;;;;;;14.95;3.42;;;11.00;99.90;;;;;;6223914;28;20045;-78
2022/12/24 02:14:05;;;;;;;12.15;3.45;;;10.90;99.90;;;;;;6223439;28;20057;-78
2022/12/24 02:17:18;;;;;;;15.25;3.40;;;10.90;99.90;;;;;;6224448;28;20065;-78
2022/12/24 02:20:42;;;;;;;7.00;2.83;;;10.90;99.90;;;;;;6223634;28;20049;-78
2022/12/24 02:24:09;;;;;;;16.63;3.60;;;10.80;99.90;;;;;;6223279;28;20419;-78
2022/12/24 02:27:21;;;;;;;11.60;3.03;;;10.80;99.90;;;;;;6223655;28;20041;-79
2022/12/24 02:30:28;;;;;;;15.25;2.85;;;10.80;99.90;;;;;;6223810;28;20046;-79
2022/12/24 02:33:35;;;;;;;15.93;3.30;;;10.80;99.90;;;;;;6223570;28;20068;-79
2022/12/24 02:36:42;;;;;;;17.92;3.75;;;10.80;99.90;;;;;;6223267;28;20046;-79
2022/12/24 02:39:48;;;;;;;25.27;3.67;;;10.80;99.90;;;;;;6223365;28;20053;-79
2022/12/24 02:42:55;;;;;;;22.42;3.90;;;10.80;99.90;;;;;;6223288;28;20530;-79
2022/12/24 02:46:01;;;;;;;11.63;3.00;;;10.80;99.90;;;;;;6223865;28;20073;-79
2022/12/24 02:49:04;;;;;;;9.43;3.33;;;10.80;99.90;;;;;;6223060;28;20065;-78
2022/12/24 02:52:05;;;;;;;19.13;4.20;;;10.80;99.90;;;;;;6223292;28;20045;-79
2022/12/24 02:55:11;;;;;;;17.00;3.45;;;10.80;99.90;;;;;;6222886;28;20058;-78
2022/12/24 02:58:26;;;;;;;18.77;5.80;;;10.80;99.90;;;;;;6222329;28;20427;-78
2022/12/24 03:01:41;;;;;;;31.67;9.20;;;10.80;99.90;;;;;;6224381;28;20057;-79
2022/12/24 03:04:52;;;;;;;12.40;3.22;;;10.90;99.90;;;;;;6222835;28;20528;-79
2022/12/24 03:08:01;;;;;;;25.15;6.22;;;10.90;99.90;;;;;;6222745;28;20050;-79
2022/12/24 03:11:08;;;;;;;14.40;4.18;;;10.90;99.90;;;;;;6222804;28;20049;-79
2022/12/24 03:14:10;;;;;;;19.20;3.80;;;11.00;99.90;;;;;;6223358;28;20057;-79
2022/12/24 03:17:14;;;;;;;17.98;3.47;;;11.00;99.90;;;;;;6223144;28;20056;-79
2022/12/24 03:20:20;;;;;;;10.20;4.07;;;11.00;99.90;;;;;;6222945;28;20050;-79
2022/12/24 03:23:28;;;;;;;20.40;3.97;;;11.00;99.90;;;;;;6222250;28;20045;-79
2022/12/24 03:26:32;;;;;;;21.73;4.43;;;11.00;99.90;;;;;;6223078;28;20042;-79
2022/12/24 03:29:34;;;;;;;24.30;5.18;;;11.00;99.90;;;;;;6223578;28;20079;-78
2022/12/24 03:32:38;;;;;;;20.42;4.35;;;11.00;99.90;;;;;;6223816;28;20053;-80
2022/12/24 03:35:39;;;;;;;17.58;3.42;;;11.00;99.90;;;;;;6223180;28;20045;-79
2022/12/24 03:38:41;;;;;;;21.67;5.55;;;11.00;99.90;;;;;;6222290;28;20041;-79
2022/12/24 03:41:43;;;;;;;26.23;4.95;;;11.00;99.90;;;;;;6222709;28;20054;-79
2022/12/24 03:44:45;;;;;;;10.55;4.00;;;11.00;99.90;;;;;;6222654;28;20049;-78
2022/12/24 03:47:48;;;;;;;11.70;2.78;;;11.00;99.90;;;;;;6221946;28;20049;-79
2022/12/24 03:50:49;;;;;;;26.92;3.60;;;11.00;99.90;;;;;;6222857;28;20052;-79
2022/12/24 03:53:52;;;;;;;22.98;3.63;;;11.00;99.90;;;;;;6222977;28;20056;-78
2022/12/24 03:56:53;;;;;;;16.38;4.72;;;11.00;99.90;;;;;;6222646;28;20050;-78
2022/12/24 03:59:55;;;;;;;22.25;3.55;;;11.00;99.90;;;;;;6221518;28;20050;-78
2022/12/24 04:02:58;;;;;;;20.10;5.45;;;11.00;99.90;;;;;;6222093;28;20050;-78
2022/12/24 04:06:02;;;;;;;19.20;4.50;;;11.00;99.90;;;;;;6221978;28;20526;-78
2022/12/24 04:09:04;;;;;;;22.70;4.40;;;11.00;99.90;;;;;;6223293;28;20049;-79
2022/12/24 04:12:06;;;;;;;17.35;4.10;;;11.00;99.90;;;;;;6222043;28;20069;-78
2022/12/24 04:15:10;;;;;;;11.95;3.45;;;11.00;99.90;;;;;;6221971;28;20050;-78
2022/12/24 04:18:13;;;;;;;31.40;6.57;;;11.00;99.90;;;;;;6221389;28;20053;-78
2022/12/24 04:21:15;;;;;;;21.55;3.53;;;11.00;99.90;;;;;;6222423;28;20054;-79
2022/12/24 04:24:16;;;;;;;16.75;3.15;;;10.90;99.90;;;;;;6221614;28;20507;-78
2022/12/24 04:27:19;;;;;;;23.92;5.05;;;10.90;99.90;;;;;;6225494;28;20046;-79
2022/12/24 04:30:20;;;;;;;19.05;4.00;;;10.80;99.90;;;;;;6226569;28;20054;-79
2022/12/24 04:33:23;;;;;;;15.80;3.05;;;10.80;99.90;;;;;;6226501;28;20050;-79
2022/12/24 04:36:25;;;;;;;11.40;3.97;;;10.80;99.90;;;;;;6226389;28;20050;-79
2022/12/24 04:39:27;;;;;;;22.50;4.18;;;10.80;99.90;;;;;;6226468;28;20046;-78
2022/12/24 04:42:28;;;;;;;25.83;3.58;;;10.70;99.90;;;;;;6238894;28;20041;-79
2022/12/24 04:45:31;;;;;;;17.50;4.80;;;10.70;99.90;;;;;;6251909;28;20053;-79
2022/12/24 04:48:34;;;;;;;16.95;3.05;;;10.70;99.90;;;;;;6250082;28;20041;-79
2022/12/24 04:51:36;;;;;;;15.82;4.28;;;10.70;99.90;;;;;;6250475;28;20057;-78
2022/12/24 04:54:38;;;;;;;21.73;3.83;;;10.70;99.90;;;;;;6250230;28;20049;-79
2022/12/24 04:57:40;;;;;;;33.05;5.97;;;10.70;99.90;;;;;;6250836;28;20060;-78
2022/12/24 05:00:42;;;;;;;18.38;3.10;;;10.70;99.90;;;;;;6250399;28;20056;-79
2022/12/24 05:03:45;;;;;;;23.75;3.30;;;10.70;99.90;;;;;;6251024;28;20041;-78
2022/12/24 05:06:46;;;;;;;20.33;3.88;;;10.70;99.90;;;;;;6250498;28;20049;-78
2022/12/24 05:09:48;;;;;;;15.05;3.05;;;10.80;99.90;;;;;;6249517;28;20679;-78
2022/12/24 05:12:50;;;;;;;19.02;4.72;;;10.80;99.90;;;;;;6249678;28;20049;-78
2022/12/24 05:15:52;;;;;;;12.30;3.03;;;10.80;99.90;;;;;;6250037;28;20053;-79
2022/12/24 05:18:55;;;;;;;14.25;3.03;;;10.80;99.90;;;;;;6249576;28;20049;-79
2022/12/24 05:28:31;;;;;;;12.80;2.85;;;10.80;99.90;;;;;;6248486;28;20045;-77
2022/12/24 05:31:34;;;;;;;13.05;2.75;;;10.70;99.90;;;;;;6249795;28;20372;-78
2022/12/24 05:34:37;;;;;;;10.68;2.75;;;10.70;99.90;;;;;;6249379;28;20096;-79
2022/12/24 05:37:39;;;;;;;20.02;3.17;;;10.80;99.90;;;;;;6250175;28;20484;-78
2022/12/24 05:40:41;;;;;;;19.63;4.00;;;10.80;99.90;;;;;;6249002;28;20045;-78
2022/12/24 05:43:42;;;;;;;22.38;4.05;;;10.80;99.90;;;;;;6249048;28;20045;-79
2022/12/24 05:46:44;;;;;;;21.50;7.05;;;10.80;99.90;;;;;;6249282;28;20053;-78
2022/12/24 05:49:47;;;;;;;13.77;3.00;;;10.90;99.90;;;;;;6249179;28;20064;-77
2022/12/24 05:52:52;;;;;;;18.20;3.38;;;10.90;99.90;;;;;;6249264;28;20048;-78
2022/12/24 05:55:53;;;;;;;15.50;3.40;;;11.00;99.90;;;;;;6248934;28;20526;-78
2022/12/24 05:58:55;;;;;;;19.42;4.50;;;11.00;99.90;;;;;;6248805;28;20093;-79
2022/12/24 06:01:57;;;;;;;25.10;9.77;;;11.00;99.90;;;;;;6249536;28;20060;-78
2022/12/24 06:05:00;;;;;;;11.38;2.92;;;11.00;99.90;;;;;;6249427;28;20041;-78
2022/12/24 06:08:01;;;;;;;23.45;3.88;;;11.10;99.90;;;;;;6248762;28;20053;-79
2022/12/24 06:11:06;;;;;;;18.48;4.88;;;11.10;99.90;;;;;;6249621;28;20056;-79
2022/12/24 06:14:08;;;;;;;12.40;4.18;;;11.10;99.90;;;;;;6249766;28;20042;-81
2022/12/24 06:17:10;;;;;;;9.95;2.70;;;11.10;99.90;;;;;;6249650;28;20053;-80
2022/12/24 06:20:13;;;;;;;10.77;2.33;;;11.10;99.90;;;;;;6248847;28;20564;-79
2022/12/24 06:23:15;;;;;;;13.05;4.55;;;11.20;99.90;;;;;;6248536;28;20041;-79
2022/12/24 06:26:19;;;;;;;19.90;3.53;;;11.30;99.90;;;;;;6248949;28;20049;-79
2022/12/24 06:29:21;;;;;;;13.63;2.65;;;11.30;99.90;;;;;;6248844;28;20060;-79
2022/12/24 06:32:22;;;;;;;27.73;7.43;;;11.40;99.90;;;;;;6249683;28;20041;-81
2022/12/24 06:35:25;;;;;;;16.15;2.65;;;11.40;99.90;;;;;;6250415;28;20586;-80
2022/12/24 06:38:29;;;;;;;17.15;3.25;;;11.40;99.90;;;;;;6251046;28;20041;-80
2022/12/24 06:41:31;;;;;;;11.38;2.88;;;11.40;99.90;;;;;;6250931;28;20060;-80
2022/12/24 06:44:32;;;;;;;19.35;4.82;;;11.50;99.90;;;;;;6249993;28;20045;-80
2022/12/24 06:47:34;;;;;;;13.68;4.10;;;11.50;99.90;;;;;;6251108;28;20049;-81
2022/12/24 06:50:37;;;;;;;14.40;2.53;;;11.50;99.90;;;;;;6250244;28;20049;-80
2022/12/24 06:53:39;;;;;;;31.17;4.53;;;11.50;99.90;;;;;;6250748;28;20057;-80
2022/12/24 06:56:41;;;;;;;17.63;3.03;;;11.50;99.90;;;;;;6250475;28;20049;-80
2022/12/24 06:59:42;;;;;;;28.75;4.15;;;11.50;99.90;;;;;;6250279;28;20057;-80
2022/12/24 07:02:44;;;;;;;19.80;3.28;;;11.50;99.90;;;;;;6250489;28;20053;-80
2022/12/24 07:05:47;;;;;;;17.40;3.47;;;11.50;99.90;;;;;;6250863;28;20069;-80
2022/12/24 07:08:49;;;;;;;23.60;7.45;;;11.50;99.90;;;;;;6251371;28;20064;-81
2022/12/24 07:11:51;;;;;;;26.20;4.25;;;11.40;99.90;;;;;;6252088;28;20419;-81
2022/12/24 07:14:53;;;;;;;11.20;3.40;;;11.50;99.90;;;;;;6252086;28;20183;-81
2022/12/24 07:17:54;;;;;;;15.82;2.75;;;11.50;99.90;;;;;;6251769;28;20196;-80
2022/12/24 07:20:58;;;;;;;22.50;6.13;;;11.60;99.90;;;;;;6251279;28;20053;-81
2022/12/24 07:23:59;;;;;;;12.35;2.65;;;11.60;99.90;;;;;;6251841;28;20041;-81
2022/12/24 07:27:01;;;;;;;38.58;15.38;;;11.60;99.90;;;;;;6253765;28;20049;-82
2022/12/24 07:30:03;;;;;;;32.40;23.75;;;11.60;99.90;;;;;;6251070;28;20503;-81
2022/12/24 07:33:05;;;;;;;23.27;5.82;;;11.70;99.90;;;;;;6252471;28;20052;-81
2022/12/24 07:36:10;;;;;;;17.73;5.93;;;11.60;99.90;;;;;;6253188;28;20053;-81
2022/12/24 07:39:11;;;;;;;16.48;4.20;;;11.60;99.90;;;;;;6251411;28;20052;-81
2022/12/24 07:42:13;;;;;;;26.23;7.18;;;11.50;99.90;;;;;;6252163;28;20426;-82
2022/12/24 07:45:15;;;;;;;21.67;3.88;;;11.40;99.90;;;;;;6252336;28;20045;-81
2022/12/24 07:48:17;;;;;;;18.88;4.30;;;11.30;99.90;;;;;;6251815;28;20073;-81
2022/12/24 07:51:20;;;;;;;111.93;53.30;;;11.20;99.90;;;;;;6251836;28;20041;-80
2022/12/24 07:54:22;;;;;;;31.17;9.73;;;11.20;99.90;;;;;;6251527;28;20052;-81
2022/12/24 07:57:23;;;;;;;15.65;3.85;;;11.20;99.90;;;;;;6251435;28;20051;-80
2022/12/24 08:00:25;;;;;;;80.10;30.42;;;11.20;99.90;;;;;;6251654;28;20052;-81
2022/12/24 08:03:27;;;;;;;29.63;7.75;;;11.30;99.90;;;;;;6256266;28;20048;-81
2022/12/24 08:06:30;;;;;;;19.25;5.10;;;11.30;99.90;;;;;;6254825;28;20052;-80
2022/12/24 08:09:33;;;;;;;33.00;8.77;;;11.40;99.90;;;;;;6256243;28;20045;-80
2022/12/24 08:12:34;;;;;;;16.55;2.95;;;11.40;99.90;;;;;;6176766;28;20074;-81
2022/12/24 08:15:36;;;;;;;52.35;19.80;;;11.40;99.90;;;;;;6252994;28;20049;-80
2022/12/24 08:18:38;;;;;;;23.30;8.50;;;11.40;99.90;;;;;;6256672;28;20048;-80
2022/12/24 08:21:41;;;;;;;112.30;51.92;;;11.50;99.90;;;;;;6261139;28;20411;-80
2022/12/24 08:24:43;;;;;;;15.57;4.93;;;11.60;99.90;;;;;;6255522;28;20045;-81
2022/12/24 08:27:45;;;;;;;15.30;3.00;;;11.60;99.90;;;;;;6254762;28;20423;-80
2022/12/24 08:30:49;;;;;;;12.75;3.13;;;11.60;99.90;;;;;;6255207;28;20056;-80
2022/12/24 08:33:51;;;;;;;18.20;7.57;;;11.60;99.90;;;;;;6257641;28;20111;-81
2022/12/24 08:36:54;;;;;;;20.60;9.85;;;11.60;99.90;;;;;;6257081;28;20045;-80
2022/12/24 08:39:55;;;;;;;16.75;4.22;;;11.60;99.90;;;;;;6256117;28;20052;-80
2022/12/24 08:42:57;;;;;;;38.75;19.73;;;11.60;99.90;;;;;;6253033;28;20056;-81
2022/12/24 08:46:02;;;;;;;11.32;3.72;;;11.70;99.90;;;;;;6251932;28;20060;-78
2022/12/24 08:49:04;;;;;;;17.80;3.35;;;11.70;99.90;;;;;;6251528;28;20068;-79
2022/12/24 08:52:07;;;;;;;11.00;3.20;;;11.70;99.90;;;;;;6253901;28;20053;-79
2022/12/24 08:55:09;;;;;;;14.07;3.13;;;11.70;99.90;;;;;;6254369;28;20529;-79
2022/12/24 08:58:11;;;;;;;20.85;3.63;;;11.80;99.90;;;;;;6253496;28;20046;-79
2022/12/24 09:01:14;;;;;;;22.23;4.45;;;11.80;99.90;;;;;;6251701;28;20053;-80
2022/12/24 09:04:16;;;;;;;26.35;4.00;;;11.80;99.90;;;;;;6253337;28;20049;-81
2022/12/24 09:07:19;;;;;;;13.95;2.78;;;11.90;99.90;;;;;;6252798;28;20061;-80
2022/12/24 09:10:21;;;;;;;16.50;3.28;;;11.90;99.90;;;;;;6253006;28;20049;-80
2022/12/24 09:13:22;;;;;;;14.10;4.50;;;12.00;99.90;;;;;;6253308;28;20054;-80
2022/12/24 09:16:24;;;;;;;11.38;3.15;;;11.90;99.90;;;;;;6253270;28;20400;-80
2022/12/24 09:19:27;;;;;;;14.00;2.85;;;11.90;99.90;;;;;;6256871;28;20068;-80
2022/12/24 09:22:30;;;;;;;12.18;3.60;;;12.00;99.90;;;;;;6254515;28;20049;-79
2022/12/24 09:25:31;;;;;;;30.95;4.40;;;12.00;99.90;;;;;;6254641;28;20052;-80
2022/12/24 09:28:33;;;;;;;13.40;3.03;;;11.90;99.90;;;;;;6253670;28;20048;-80
2022/12/24 09:31:35;;;;;;;17.25;3.17;;;11.80;99.90;;;;;;6253028;28;20053;-79
2022/12/24 09:34:37;;;;;;;26.10;4.40;;;11.70;99.90;;;;;;6252430;28;20049;-80
2022/12/24 09:37:40;;;;;;;19.85;3.92;;;11.60;99.90;;;;;;6251725;28;20418;-80
2022/12/24 09:40:41;;;;;;;15.27;3.28;;;11.40;99.90;;;;;;6250411;28;20045;-78
2022/12/24 09:43:47;;;;;;;16.08;3.95;;;11.20;99.90;;;;;;6249466;28;20407;-78
2022/12/24 09:46:50;;;;;;;25.75;5.30;;;11.00;99.90;;;;;;6251701;28;20049;-77
2022/12/24 09:49:54;;;;;;;19.20;4.13;;;10.90;99.90;;;;;;6254754;28;20049;-78
2022/12/24 09:53:01;;;;;;;16.50;3.63;;;10.80;99.90;;;;;;6250430;28;20045;-80
2022/12/24 09:56:07;;;;;;;22.38;8.57;;;10.80;99.90;;;;;;6251476;28;20124;-80
2022/12/24 09:59:14;;;;;;;12.68;5.43;;;10.80;99.90;;;;;;6251104;28;20056;-79
2022/12/24 10:02:18;;;;;;;17.33;5.78;;;10.80;99.90;;;;;;6250778;28;20053;-79
2022/12/24 10:05:38;;;;;;;18.27;3.97;;;10.90;99.90;;;;;;6249752;28;20045;-79
2022/12/24 10:08:56;;;;;;;30.00;6.25;;;10.90;99.90;;;;;;6248804;28;20538;-77
2022/12/24 10:12:06;;;;;;;70.20;31.38;;;10.90;99.90;;;;;;6249484;28;20049;-78
2022/12/24 10:15:15;;;;;;;67.10;24.70;;;10.90;99.90;;;;;;6250014;28;20056;-78
2022/12/24 10:18:27;;;;;;;64.88;30.52;;;10.90;99.90;;;;;;6244897;28;20422;-78
2022/12/24 10:21:38;;;;;;;46.92;18.80;;;11.00;99.90;;;;;;6249860;28;20052;-78
2022/12/24 10:24:50;;;;;;;41.90;12.50;;;11.00;99.90;;;;;;6247826;28;20052;-79
2022/12/24 10:27:54;;;;;;;29.00;12.25;;;11.00;99.90;;;;;;6247802;28;20051;-79
2022/12/24 10:31:06;;;;;;;19.13;8.48;;;11.00;99.90;;;;;;6249909;28;20053;-79
2022/12/24 10:34:17;;;;;;;56.65;32.53;;;11.00;99.90;;;;;;6249741;28;20058;-79
2022/12/24 10:37:23;;;;;;;34.67;13.15;;;11.10;99.90;;;;;;6248474;28;20056;-78
2022/12/24 10:40:33;;;;;;;36.95;10.23;;;11.10;99.90;;;;;;6248764;28;20209;-78
2022/12/24 10:43:37;;;;;;;29.83;10.82;;;11.20;99.90;;;;;;6248532;28;20049;-78
2022/12/24 10:46:40;;;;;;;32.83;10.55;;;11.20;99.90;;;;;;6247980;28;20045;-78
2022/12/24 10:49:46;;;;;;;28.20;9.02;;;11.20;99.90;;;;;;6245673;28;20056;-79
2022/12/24 10:52:49;;;;;;;28.58;7.28;;;11.20;99.90;;;;;;6247750;28;20053;-76
2022/12/24 10:56:01;;;;;;;99.13;83.68;;;11.40;99.90;;;;;;6248819;28;20502;-78
2022/12/24 10:59:03;;;;;;;35.90;24.05;;;11.40;99.90;;;;;;6247887;28;20045;-77
2022/12/24 11:02:26;;;;;;;35.80;16.27;;;11.60;99.90;;;;;;6249675;28;20056;-77
2022/12/24 11:05:30;;;;;;;32.35;10.90;;;11.70;99.90;;;;;;6248430;28;20057;-77
2022/12/24 11:08:33;;;;;;;30.33;10.40;;;11.90;99.90;;;;;;6247976;28;20103;-77
2022/12/24 11:11:36;;;;;;;21.48;7.13;;;12.00;99.90;;;;;;6248357;28;20096;-77
2022/12/24 11:14:39;;;;;;;53.33;26.38;;;12.00;99.90;;;;;;6248840;28;20064;-77
2022/12/24 11:17:40;;;;;;;41.58;27.33;;;12.10;99.90;;;;;;6247571;28;20049;-77
2022/12/24 11:20:50;;;;;;;32.30;17.55;;;12.20;99.90;;;;;;6247787;28;20532;-77
2022/12/24 11:23:55;;;;;;;16.42;5.38;;;12.30;99.90;;;;;;6248120;28;20045;-77
2022/12/24 11:27:23;;;;;;;28.52;7.15;;;12.40;99.90;;;;;;6247248;28;20056;-77
2022/12/24 11:30:31;;;;;;;32.63;5.88;;;12.50;99.90;;;;;;6247779;28;20048;-77
2022/12/24 11:33:46;;;;;;;20.83;4.43;;;12.50;99.90;;;;;;6247298;28;20049;-78
2022/12/24 11:36:48;;;;;;;17.17;4.43;;;12.50;99.90;;;;;;6247514;28;20038;-81
2022/12/24 11:39:52;;;;;;;20.30;4.40;;;12.50;99.90;;;;;;6246491;28;20056;-77
2022/12/24 11:43:00;;;;;;;16.48;3.83;;;12.50;99.90;;;;;;6249699;28;20052;-80
2022/12/24 11:46:12;;;;;;;;;;;12.50;99.90;;;;;;6252046;28;20045;-80
2022/12/24 11:49:21;;;;;;;20.70;5.57;;;12.50;99.90;;;;;;6250851;28;20540;-79
2022/12/24 11:52:24;;;;;;;26.30;4.20;;;12.80;99.90;;;;;;6251672;28;20519;-79
2022/12/24 11:55:37;;;;;;;30.05;4.93;;;12.90;99.90;;;;;;6251716;28;20246;-80
2022/12/24 11:58:42;;;;;;;10.57;4.40;;;13.30;99.90;;;;;;6251555;28;20053;-78
2022/12/24 12:01:52;;;;;;;18.30;8.23;;;13.60;99.90;;;;;;6251349;28;20422;-79
2022/12/24 12:04:57;;;;;;;36.58;28.65;;;13.90;99.90;;;;;;6249413;28;20388;-79
2022/12/24 12:08:08;;;;;;;17.10;6.13;;;14.10;99.90;;;;;;6248045;28;20056;-79
2022/12/24 12:11:13;;;;;;;18.73;5.38;;;14.30;99.90;;;;;;6250783;28;20049;-80
2022/12/24 12:14:21;;;;;;;25.15;7.13;;;14.40;99.90;;;;;;6251500;28;20045;-80
2022/12/24 12:17:32;;;;;;;17.25;8.25;;;14.70;99.90;;;;;;6251271;28;20510;-80
2022/12/24 12:20:39;;;;;;;25.15;11.13;;;15.00;99.90;;;;;;6250925;28;20053;-80
2022/12/24 12:23:46;;;;;;;22.02;9.73;;;15.50;99.90;;;;;;6251663;28;20499;-80
2022/12/24 12:26:57;;;;;;;38.17;18.27;;;15.70;99.90;;;;;;6251579;28;20050;-80
2022/12/24 12:30:02;;;;;;;34.70;10.85;;;15.80;99.90;;;;;;6251029;28;20066;-81
2022/12/24 12:33:19;;;;;;;11.48;5.32;;;15.60;99.90;;;;;;6253141;28;20051;-80
2022/12/24 12:36:26;;;;;;;102.82;45.25;;;15.30;99.90;;;;;;6257144;28;20046;-79
2022/12/24 12:39:36;;;;;;;18.15;5.43;;;15.00;99.90;;;;;;6253518;28;20046;-81
2022/12/24 12:42:39;;;;;;;121.57;46.95;;;14.90;99.90;;;;;;6253557;28;20049;-80
2022/12/24 12:45:50;;;;;;;208.25;76.80;;;14.80;99.90;;;;;;6251550;28;20042;-80
2022/12/24 12:49:11;;;;;;;16.88;4.95;;;14.80;99.90;;;;;;6253442;28;20045;-80
2022/12/24 12:52:21;;;;;;;16.88;4.78;;;14.70;99.90;;;;;;6227394;28;20050;-79
2022/12/24 12:55:35;;;;;;;24.42;6.43;;;14.70;99.90;;;;;;6228369;28;20037;-80
2022/12/24 12:58:42;;;;;;;33.33;9.88;;;14.60;99.90;;;;;;6226736;28;20057;-79
2022/12/24 13:01:50;;;;;;;171.35;67.07;;;14.40;99.90;;;;;;6227870;28;20103;-80
2022/12/24 13:05:22;;;;;;;122.18;55.25;;;14.50;99.90;;;;;;6227003;28;20496;-78
2022/12/24 13:08:48;;;;;;;113.35;47.53;;;14.60;99.90;;;;;;6247460;28;20400;-79
2022/12/24 13:12:17;;;;;;;26.58;7.78;;;14.90;99.90;;;;;;6250672;28;20423;-79
2022/12/24 13:15:40;;;;;;;67.75;36.50;;;15.10;99.90;;;;;;6250762;28;20043;-78
2022/12/24 13:18:53;;;;;;;55.90;29.67;;;15.20;99.90;;;;;;6245023;28;20045;-80
2022/12/24 13:21:57;;;;;;;17.33;7.03;;;15.40;99.90;;;;;;6250955;28;20053;-79
2022/12/24 13:24:58;;;;;;;153.75;83.78;;;15.60;99.90;;;;;;6250143;28;20052;-80
2022/12/24 13:28:15;;;;;;;110.65;54.70;;;15.60;99.90;;;;;;6249960;28;20140;-80
2022/12/24 13:31:28;;;;;;;15.32;7.95;;;15.70;99.90;;;;;;6252263;28;20042;-81
2022/12/24 13:34:37;;;;;;;47.88;21.73;;;15.60;99.90;;;;;;6251257;28;20049;-82
2022/12/24 13:37:40;;;;;;;22.70;7.50;;;15.30;99.90;;;;;;6250848;28;20526;-80
2022/12/24 13:40:41;;;;;;;17.40;4.10;;;15.00;99.90;;;;;;6251601;28;20045;-81
2022/12/24 13:44:14;;;;;;;45.70;21.27;;;14.80;99.90;;;;;;6252677;28;20049;-80
2022/12/24 13:47:22;;;;;;;22.40;8.95;;;14.40;99.90;;;;;;6252925;28;20053;-80
2022/12/24 13:50:34;;;;;;;16.27;6.43;;;14.20;99.90;;;;;;6252637;28;20041;-81
2022/12/24 13:53:41;;;;;;;13.68;4.88;;;14.00;99.90;;;;;;6252683;28;20046;-78
2022/12/24 13:56:43;;;;;;;19.13;8.23;;;13.90;99.90;;;;;;6250880;28;20045;-80
2022/12/24 13:59:46;;;;;;;17.73;5.80;;;13.80;99.90;;;;;;6250577;28;20046;-82
2022/12/24 14:02:51;;;;;;;18.58;5.65;;;13.70;99.90;;;;;;6249903;28;20052;-80
2022/12/24 14:05:58;;;;;;;16.02;6.30;;;13.60;99.90;;;;;;6250604;28;20050;-84
2022/12/24 14:09:10;;;;;;;19.95;4.32;;;13.60;99.90;;;;;;6248601;28;20393;-81
2022/12/24 14:12:30;;;;;;;14.77;3.55;;;13.50;99.90;;;;;;6253138;28;20422;-81
2022/12/24 14:16:08;;;;;;;13.32;2.65;;;13.40;99.90;;;;;;6252478;28;20048;-80
2022/12/24 14:19:14;;;;;;;16.33;4.32;;;13.30;99.90;;;;;;6253269;28;20046;-80
2022/12/24 14:22:26;;;;;;;14.13;3.20;;;13.30;99.90;;;;;;6253315;28;20049;-82
2022/12/24 14:25:29;;;;;;;9.50;2.30;;;13.10;99.90;;;;;;6253912;28;20403;-84
2022/12/24 14:28:36;;;;;;;16.52;3.10;;;13.10;99.90;;;;;;6256593;28;20054;-79
2022/12/24 14:31:38;;;;;;;16.20;7.95;;;13.10;99.90;;;;;;6255983;28;20052;-84
2022/12/24 14:34:40;;;;;;;8.68;3.15;;;13.10;99.90;;;;;;6251771;28;20054;-81
2022/12/24 14:37:45;;;;;;;20.85;4.28;;;13.00;99.90;;;;;;6251058;28;20060;-82
2022/12/24 14:40:56;;;;;;;8.48;2.92;;;13.00;99.90;;;;;;6252181;28;20103;-83
2022/12/24 14:44:08;;;;;;;15.13;3.35;;;12.90;99.90;;;;;;6252090;28;20053;-82
2022/12/24 14:47:22;;;;;;;14.05;3.85;;;12.80;99.90;;;;;;6247421;28;20052;-81
2022/12/24 14:50:40;;;;;;;13.85;2.97;;;12.70;99.90;;;;;;6251179;28;20041;-82
2022/12/24 14:54:09;;;;;;;14.23;3.25;;;12.70;99.90;;;;;;6251175;28;20053;-81
2022/12/24 14:57:22;;;;;;;12.05;2.65;;;12.60;99.90;;;;;;6251850;28;20056;-83
2022/12/24 15:00:26;;;;;;;8.13;2.70;;;12.60;99.90;;;;;;6250634;28;20056;-81
2022/12/24 15:03:29;;;;;;;19.23;3.88;;;12.50;99.90;;;;;;6250048;28;20057;-81
2022/12/24 15:06:34;;;;;;;18.27;4.13;;;12.50;99.90;;;;;;6250576;28;20053;-82
2022/12/24 15:09:39;;;;;;;15.02;4.20;;;12.40;99.90;;;;;;6248884;28;20419;-81
2022/12/24 15:12:43;;;;;;;15.60;3.13;;;12.40;99.90;;;;;;6250423;28;20064;-80
2022/12/24 15:15:47;;;;;;;18.60;8.30;;;12.40;99.90;;;;;;6250069;28;20041;-80
2022/12/24 15:18:52;;;;;;;10.80;2.97;;;12.30;99.90;;;;;;6256171;28;20052;-80
2022/12/24 15:21:54;;;;;;;11.32;3.70;;;12.30;99.90;;;;;;6253415;28;20053;-80
2022/12/24 15:24:56;;;;;;;14.93;3.20;;;12.20;99.90;;;;;;6251635;28;20412;-84
2022/12/24 15:28:00;;;;;;;20.33;10.93;;;12.10;99.90;;;;;;6253462;28;20064;-84
2022/12/24 15:31:07;;;;;;;11.25;3.35;;;12.10;99.90;;;;;;6256339;28;20041;-79
2022/12/24 15:34:26;;;;;;;15.35;3.95;;;12.00;99.90;;;;;;6248391;28;20082;-80
2022/12/24 15:37:30;;;;;;;10.40;3.28;;;12.00;99.90;;;;;;6250835;28;20053;-79
2022/12/24 15:40:33;;;;;;;14.95;3.20;;;11.90;99.90;;;;;;6250609;28;20434;-83
2022/12/24 15:43:39;;;;;;;11.30;2.88;;;11.90;99.90;;;;;;6248923;28;20068;-83
2022/12/24 15:46:41;;;;;;;9.60;3.75;;;11.90;99.90;;;;;;6249545;28;20033;-81
2022/12/24 15:49:47;;;;;;;11.95;3.42;;;11.80;99.90;;;;;;6253764;28;20050;-81
2022/12/24 15:52:49;;;;;;;7.00;2.88;;;11.80;99.90;;;;;;6256645;28;20041;-81
2022/12/24 15:56:09;;;;;;;6.80;2.95;;;11.80;99.90;;;;;;6259140;28;20042;-81
2022/12/24 15:59:26;;;;;;;15.98;4.22;;;11.80;99.90;;;;;;6260001;28;20533;-81
2022/12/24 16:02:37;;;;;;;7.97;3.28;;;11.80;99.90;;;;;;6257532;28;20049;-83